sensor_id;sensor_type;location;lat;lon;timestamp;temperature;humidity
6186;DHT22;3126;52.738;8.316;2023-05-27T00:01:41;7.40;99.90
6186;DHT22;3126;52.738;8.316;2023-05-27T00:06:42;7.30;99.90
6186;DHT22;3126;52.738;8.316;2023-05-27T00:11:42;7.20;99.90
6186;DHT22;3126;52.738;8.316;2023-05-27T00:16:43;7.20;99.90
6186;DHT22;3126;52.738;8.316;2023-05-27T00:21:44;7.20;99.90
6186;DHT22;3126;52.738;8.316;2023-05-27T00:26:44;7.10;99.90
6186;DHT22;3126;52.738;8.316;2023-05-27T00:36:46;7.10;99.90
6186;DHT22;3126;52.738;8.316;2023-05-27T00:41:50;7.00;99.90
6186;DHT22;3126;52.738;8.316;2023-05-27T00:46:51;7.00;99.90
6186;DHT22;3126;52.738;8.316;2023-05-27T00:51:53;7.00;99.90
6186;DHT22;3126;52.738;8.316;2023-05-27T01:42:20;6.90;99.90
6186;DHT22;3126;52.738;8.316;2023-05-27T01:47:21;6.50;99.90
6186;DHT22;3126;52.738;8.316;2023-05-27T01:52:21;6.50;99.90
6186;DHT22;3126;52.738;8.316;2023-05-27T01:57:24;6.40;99.90
6186;DHT22;3126;52.738;8.316;2023-05-27T02:02:25;6.30;99.90
6186;DHT22;3126;52.738;8.316;2023-05-27T02:07:25;6.40;99.90
6186;DHT22;3126;52.738;8.316;2023-05-27T02:12:27;6.30;99.90
6186;DHT22;3126;52.738;8.316;2023-05-27T02:17:27;6.20;99.90
6186;DHT22;3126;52.738;8.316;2023-05-27T02:22:28;6.20;99.90
6186;DHT22;3126;52.738;8.316;2023-05-27T02:27:28;6.10;99.90
6186;DHT22;3126;52.738;8.316;2023-05-27T02:32:29;6.00;99.90
6186;DHT22;3126;52.738;8.316;2023-05-27T02:47:33;6.00;99.90
6186;DHT22;3126;52.738;8.316;2023-05-27T02:52:33;6.00;99.90
6186;DHT22;3126;52.738;8.316;2023-05-27T02:57:34;6.00;99.90
6186;DHT22;3126;52.738;8.316;2023-05-27T03:02:35;5.90;99.90
6186;DHT22;3126;52.738;8.316;2023-05-27T03:07:36;5.80;99.90
6186;DHT22;3126;52.738;8.316;2023-05-27T03:12:36;5.80;99.90
6186;DHT22;3126;52.738;8.316;2023-05-27T03:17:37;5.80;99.90
6186;DHT22;3126;52.738;8.316;2023-05-27T03:22:38;5.70;99.90
6186;DHT22;3126;52.738;8.316;2023-05-27T03:27:39;5.60;99.90
6186;DHT22;3126;52.738;8.316;2023-05-27T03:32:40;5.60;99.90
6186;DHT22;3126;52.738;8.316;2023-05-27T03:37:41;5.70;99.90
6186;DHT22;3126;52.738;8.316;2023-05-27T03:42:41;5.60;99.90
6186;DHT22;3126;52.738;8.316;2023-05-27T03:47:42;5.60;99.90
6186;DHT22;3126;52.738;8.316;2023-05-27T03:52:42;5.70;99.90
6186;DHT22;3126;52.738;8.316;2023-05-27T03:57:43;5.70;99.90
6186;DHT22;3126;52.738;8.316;2023-05-27T04:02:44;5.70;99.90
6186;DHT22;3126;52.738;8.316;2023-05-27T04:07:44;5.70;99.90
6186;DHT22;3126;52.738;8.316;2023-05-27T04:12:45;5.80;99.90
6186;DHT22;3126;52.738;8.316;2023-05-27T04:17:46;5.90;99.90
6186;DHT22;3126;52.738;8.316;2023-05-27T04:22:46;6.00;99.90
6186;DHT22;3126;52.738;8.316;2023-05-27T04:27:47;6.10;99.90
6186;DHT22;3126;52.738;8.316;2023-05-27T04:32:48;6.20;99.90
6186;DHT22;3126;52.738;8.316;2023-05-27T04:37:48;6.30;99.90
6186;DHT22;3126;52.738;8.316;2023-05-27T04:42:49;6.40;99.90
6186;DHT22;3126;52.738;8.316;2023-05-27T04:47:50;6.60;99.90
6186;DHT22;3126;52.738;8.316;2023-05-27T04:52:50;6.70;99.90
6186;DHT22;3126;52.738;8.316;2023-05-27T04:57:51;6.90;99.90
6186;DHT22;3126;52.738;8.316;2023-05-27T05:02:52;7.00;99.90
6186;DHT22;3126;52.738;8.316;2023-05-27T05:08:01;7.20;99.90
6186;DHT22;3126;52.738;8.316;2023-05-27T05:13:01;7.40;99.90
6186;DHT22;3126;52.738;8.316;2023-05-27T05:18:02;7.60;99.90
6186;DHT22;3126;52.738;8.316;2023-05-27T05:23:02;7.80;99.90
6186;DHT22;3126;52.738;8.316;2023-05-27T05:28:04;8.20;99.90
6186;DHT22;3126;52.738;8.316;2023-05-27T05:43:07;9.30;99.90
6186;DHT22;3126;52.738;8.316;2023-05-27T05:48:08;9.70;99.90
6186;DHT22;3126;52.738;8.316;2023-05-27T05:53:09;10.00;99.90
6186;DHT22;3126;52.738;8.316;2023-05-27T05:58:10;10.30;99.90
6186;DHT22;3126;52.738;8.316;2023-05-27T06:03:11;10.60;99.90
6186;DHT22;3126;52.738;8.316;2023-05-27T06:08:11;11.00;99.30
6186;DHT22;3126;52.738;8.316;2023-05-27T06:48:20;14.40;85.20
6186;DHT22;3126;52.738;8.316;2023-05-27T07:13:25;15.60;79.20
6186;DHT22;3126;52.738;8.316;2023-05-27T07:18:25;17.20;71.00
6186;DHT22;3126;52.738;8.316;2023-05-27T07:28:27;17.40;70.60
6186;DHT22;3126;52.738;8.316;2023-05-27T07:33:27;17.90;68.60
6186;DHT22;3126;52.738;8.316;2023-05-27T07:38:28;18.30;67.40
6186;DHT22;3126;52.738;8.316;2023-05-27T07:43:30;18.50;66.90
6186;DHT22;3126;52.738;8.316;2023-05-27T07:48:30;18.80;66.50
6186;DHT22;3126;52.738;8.316;2023-05-27T07:53:31;19.10;65.60
6186;DHT22;3126;52.738;8.316;2023-05-27T07:58:31;19.30;64.10
6186;DHT22;3126;52.738;8.316;2023-05-27T08:03:32;19.60;64.00
6186;DHT22;3126;52.738;8.316;2023-05-27T08:08:32;19.80;61.50
6186;DHT22;3126;52.738;8.316;2023-05-27T08:13:33;20.10;61.90
6186;DHT22;3126;52.738;8.316;2023-05-27T08:18:33;20.20;60.00
6186;DHT22;3126;52.738;8.316;2023-05-27T08:23:34;20.50;59.80
6186;DHT22;3126;52.738;8.316;2023-05-27T08:28:35;20.40;60.30
6186;DHT22;3126;52.738;8.316;2023-05-27T08:33:37;20.90;59.40
6186;DHT22;3126;52.738;8.316;2023-05-27T08:38:37;21.10;57.50
6186;DHT22;3126;52.738;8.316;2023-05-27T08:43:38;21.40;58.30
6186;DHT22;3126;52.738;8.316;2023-05-27T08:48:39;21.70;59.70
6186;DHT22;3126;52.738;8.316;2023-05-27T08:53:40;22.20;54.50
6186;DHT22;3126;52.738;8.316;2023-05-27T08:58:41;22.00;53.00
6186;DHT22;3126;52.738;8.316;2023-05-27T09:03:43;22.00;53.70
6186;DHT22;3126;52.738;8.316;2023-05-27T09:08:44;22.40;51.40
6186;DHT22;3126;52.738;8.316;2023-05-27T09:13:46;22.40;52.30
6186;DHT22;3126;52.738;8.316;2023-05-27T09:18:46;22.10;51.50
6186;DHT22;3126;52.738;8.316;2023-05-27T09:23:47;22.50;51.30
6186;DHT22;3126;52.738;8.316;2023-05-27T09:28:47;23.10;50.70
6186;DHT22;3126;52.738;8.316;2023-05-27T09:33:48;23.40;49.10
6186;DHT22;3126;52.738;8.316;2023-05-27T09:38:49;23.00;47.90
6186;DHT22;3126;52.738;8.316;2023-05-27T09:43:54;22.10;53.30
6186;DHT22;3126;52.738;8.316;2023-05-27T09:48:58;22.60;51.80
6186;DHT22;3126;52.738;8.316;2023-05-27T09:53:59;23.30;49.10
6186;DHT22;3126;52.738;8.316;2023-05-27T09:59:00;23.80;46.70
6186;DHT22;3126;52.738;8.316;2023-05-27T10:04:02;24.00;47.60
6186;DHT22;3126;52.738;8.316;2023-05-27T10:09:03;23.90;47.00
6186;DHT22;3126;52.738;8.316;2023-05-27T10:14:05;24.30;44.00
6186;DHT22;3126;52.738;8.316;2023-05-27T10:19:10;24.30;44.30
6186;DHT22;3126;52.738;8.316;2023-05-27T10:24:11;24.40;43.80
6186;DHT22;3126;52.738;8.316;2023-05-27T10:29:13;24.10;43.90
6186;DHT22;3126;52.738;8.316;2023-05-27T10:34:14;23.90;45.30
6186;DHT22;3126;52.738;8.316;2023-05-27T10:39:17;24.40;43.20
6186;DHT22;3126;52.738;8.316;2023-05-27T10:44:29;24.50;43.80
6186;DHT22;3126;52.738;8.316;2023-05-27T10:49:38;25.00;43.80
6186;DHT22;3126;52.738;8.316;2023-05-27T10:54:40;25.10;42.50
6186;DHT22;3126;52.738;8.316;2023-05-27T11:00:00;25.40;41.60
6186;DHT22;3126;52.738;8.316;2023-05-27T11:05:07;25.40;40.80
6186;DHT22;3126;52.738;8.316;2023-05-27T11:10:09;25.70;39.60
6186;DHT22;3126;52.738;8.316;2023-05-27T11:15:10;25.80;39.60
6186;DHT22;3126;52.738;8.316;2023-05-27T11:20:11;25.50;40.10
6186;DHT22;3126;52.738;8.316;2023-05-27T11:25:12;25.70;43.10
6186;DHT22;3126;52.738;8.316;2023-05-27T11:30:13;26.00;40.30
6186;DHT22;3126;52.738;8.316;2023-05-27T11:35:17;25.90;40.50
6186;DHT22;3126;52.738;8.316;2023-05-27T11:40:18;25.70;41.00
6186;DHT22;3126;52.738;8.316;2023-05-27T11:45:20;25.80;41.40
6186;DHT22;3126;52.738;8.316;2023-05-27T11:50:24;25.80;40.30
6186;DHT22;3126;52.738;8.316;2023-05-27T11:55:24;26.00;39.80
6186;DHT22;3126;52.738;8.316;2023-05-27T12:00:25;26.00;39.10
6186;DHT22;3126;52.738;8.316;2023-05-27T12:05:26;26.00;39.40
6186;DHT22;3126;52.738;8.316;2023-05-27T12:10:26;25.90;38.90
6186;DHT22;3126;52.738;8.316;2023-05-27T12:15:27;25.70;40.10
6186;DHT22;3126;52.738;8.316;2023-05-27T12:20:28;25.90;41.10
6186;DHT22;3126;52.738;8.316;2023-05-27T12:25:29;26.20;40.00
6186;DHT22;3126;52.738;8.316;2023-05-27T12:30:29;26.30;39.60
6186;DHT22;3126;52.738;8.316;2023-05-27T12:35:30;26.10;39.80
6186;DHT22;3126;52.738;8.316;2023-05-27T12:40:31;26.10;39.90
6186;DHT22;3126;52.738;8.316;2023-05-27T12:45:31;25.90;40.30
6186;DHT22;3126;52.738;8.316;2023-05-27T12:50:32;25.80;42.10
6186;DHT22;3126;52.738;8.316;2023-05-27T12:55:34;25.80;42.30
6186;DHT22;3126;52.738;8.316;2023-05-27T13:00:34;25.70;40.30
6186;DHT22;3126;52.738;8.316;2023-05-27T13:05:35;25.60;41.80
6186;DHT22;3126;52.738;8.316;2023-05-27T13:10:36;25.60;40.20
6186;DHT22;3126;52.738;8.316;2023-05-27T13:15:36;25.30;42.00
6186;DHT22;3126;52.738;8.316;2023-05-27T13:20:37;25.20;39.90
6186;DHT22;3126;52.738;8.316;2023-05-27T13:25:38;25.20;41.40
6186;DHT22;3126;52.738;8.316;2023-05-27T13:30:38;25.20;42.50
6186;DHT22;3126;52.738;8.316;2023-05-27T13:35:39;24.50;41.90
6186;DHT22;3126;52.738;8.316;2023-05-27T13:40:39;24.70;42.00
6186;DHT22;3126;52.738;8.316;2023-05-27T13:45:41;24.80;40.70
6186;DHT22;3126;52.738;8.316;2023-05-27T13:50:41;24.70;41.80
6186;DHT22;3126;52.738;8.316;2023-05-27T13:55:42;24.60;43.10
6186;DHT22;3126;52.738;8.316;2023-05-27T14:00:43;24.40;41.80
6186;DHT22;3126;52.738;8.316;2023-05-27T14:05:44;24.50;42.70
6186;DHT22;3126;52.738;8.316;2023-05-27T14:10:45;24.50;42.10
6186;DHT22;3126;52.738;8.316;2023-05-27T14:15:45;24.60;40.10
6186;DHT22;3126;52.738;8.316;2023-05-27T14:20:46;24.40;41.90
6186;DHT22;3126;52.738;8.316;2023-05-27T14:25:46;24.10;42.40
6186;DHT22;3126;52.738;8.316;2023-05-27T14:30:47;24.10;43.10
6186;DHT22;3126;52.738;8.316;2023-05-27T14:35:47;24.10;44.10
6186;DHT22;3126;52.738;8.316;2023-05-27T14:40:48;24.00;43.50
6186;DHT22;3126;52.738;8.316;2023-05-27T14:45:49;24.10;41.50
6186;DHT22;3126;52.738;8.316;2023-05-27T14:50:50;23.90;42.50
6186;DHT22;3126;52.738;8.316;2023-05-27T14:55:51;23.80;41.40
6186;DHT22;3126;52.738;8.316;2023-05-27T15:00:52;23.80;44.70
6186;DHT22;3126;52.738;8.316;2023-05-27T15:05:52;23.60;42.70
6186;DHT22;3126;52.738;8.316;2023-05-27T15:10:58;23.50;43.60
6186;DHT22;3126;52.738;8.316;2023-05-27T15:15:58;23.40;43.80
6186;DHT22;3126;52.738;8.316;2023-05-27T15:20:59;23.40;43.50
6186;DHT22;3126;52.738;8.316;2023-05-27T15:26:00;23.40;43.80
6186;DHT22;3126;52.738;8.316;2023-05-27T15:31:00;23.40;44.00
6186;DHT22;3126;52.738;8.316;2023-05-27T15:36:02;23.10;44.30
6186;DHT22;3126;52.738;8.316;2023-05-27T15:41:04;23.20;43.50
6186;DHT22;3126;52.738;8.316;2023-05-27T15:46:04;23.00;42.40
6186;DHT22;3126;52.738;8.316;2023-05-27T15:51:05;22.90;43.80
6186;DHT22;3126;52.738;8.316;2023-05-27T15:56:05;22.70;44.00
6186;DHT22;3126;52.738;8.316;2023-05-27T16:01:06;22.50;44.30
6186;DHT22;3126;52.738;8.316;2023-05-27T16:06:07;22.50;45.50
6186;DHT22;3126;52.738;8.316;2023-05-27T16:11:08;22.50;45.60
6186;DHT22;3126;52.738;8.316;2023-05-27T16:16:09;22.50;44.10
6186;DHT22;3126;52.738;8.316;2023-05-27T16:21:09;22.50;46.20
6186;DHT22;3126;52.738;8.316;2023-05-27T16:26:12;22.40;45.30
6186;DHT22;3126;52.738;8.316;2023-05-27T16:31:13;22.20;45.00
6186;DHT22;3126;52.738;8.316;2023-05-27T16:36:13;22.10;45.30
6186;DHT22;3126;52.738;8.316;2023-05-27T16:41:14;22.00;45.40
6186;DHT22;3126;52.738;8.316;2023-05-27T16:46:15;21.80;44.60
6186;DHT22;3126;52.738;8.316;2023-05-27T16:51:15;21.70;45.90
6186;DHT22;3126;52.738;8.316;2023-05-27T16:56:16;21.60;46.30
6186;DHT22;3126;52.738;8.316;2023-05-27T17:01:16;21.60;46.90
6186;DHT22;3126;52.738;8.316;2023-05-27T17:06:17;21.50;47.90
6186;DHT22;3126;52.738;8.316;2023-05-27T17:11:18;21.50;48.00
6186;DHT22;3126;52.738;8.316;2023-05-27T17:16:18;21.50;47.70
6186;DHT22;3126;52.738;8.316;2023-05-27T17:21:19;21.40;48.20
6186;DHT22;3126;52.738;8.316;2023-05-27T17:26:19;21.30;47.70
6186;DHT22;3126;52.738;8.316;2023-05-27T17:31:22;21.20;48.40
6186;DHT22;3126;52.738;8.316;2023-05-27T17:36:22;21.10;48.70
6186;DHT22;3126;52.738;8.316;2023-05-27T17:41:23;21.00;48.30
6186;DHT22;3126;52.738;8.316;2023-05-27T17:46:24;20.90;49.40
6186;DHT22;3126;52.738;8.316;2023-05-27T17:51:24;20.80;50.00
6186;DHT22;3126;52.738;8.316;2023-05-27T17:56:27;20.70;49.90
6186;DHT22;3126;52.738;8.316;2023-05-27T18:01:27;20.60;50.00
6186;DHT22;3126;52.738;8.316;2023-05-27T18:06:29;20.50;50.10
6186;DHT22;3126;52.738;8.316;2023-05-27T18:11:31;20.40;51.30
6186;DHT22;3126;52.738;8.316;2023-05-27T18:16:32;20.30;51.50
6186;DHT22;3126;52.738;8.316;2023-05-27T18:21:33;20.10;52.30
6186;DHT22;3126;52.738;8.316;2023-05-27T18:26:33;19.90;53.90
6186;DHT22;3126;52.738;8.316;2023-05-27T18:31:34;19.70;55.30
6186;DHT22;3126;52.738;8.316;2023-05-27T18:36:34;19.60;56.00
6186;DHT22;3126;52.738;8.316;2023-05-27T18:41:35;19.40;57.70
6186;DHT22;3126;52.738;8.316;2023-05-27T18:46:38;19.30;58.20
6186;DHT22;3126;52.738;8.316;2023-05-27T18:51:38;19.10;60.10
6186;DHT22;3126;52.738;8.316;2023-05-27T18:56:39;18.90;58.70
6186;DHT22;3126;52.738;8.316;2023-05-27T19:01:40;18.70;58.90
6186;DHT22;3126;52.738;8.316;2023-05-27T19:06:41;18.50;58.90
6186;DHT22;3126;52.738;8.316;2023-05-27T19:11:41;18.40;59.10
6186;DHT22;3126;52.738;8.316;2023-05-27T19:16:42;18.10;60.30
6186;DHT22;3126;52.738;8.316;2023-05-27T19:21:42;18.00;60.90
6186;DHT22;3126;52.738;8.316;2023-05-27T19:26:43;17.80;61.70
6186;DHT22;3126;52.738;8.316;2023-05-27T19:31:44;17.60;62.40
6186;DHT22;3126;52.738;8.316;2023-05-27T19:36:44;17.40;64.10
6186;DHT22;3126;52.738;8.316;2023-05-27T19:41:46;17.20;65.20
6186;DHT22;3126;52.738;8.316;2023-05-27T19:46:46;17.00;65.80
6186;DHT22;3126;52.738;8.316;2023-05-27T19:51:47;16.80;66.90
6186;DHT22;3126;52.738;8.316;2023-05-27T19:56:47;16.60;69.90
6186;DHT22;3126;52.738;8.316;2023-05-27T20:01:48;16.30;70.50
6186;DHT22;3126;52.738;8.316;2023-05-27T20:06:48;16.20;72.40
6186;DHT22;3126;52.738;8.316;2023-05-27T20:11:49;16.00;71.50
6186;DHT22;3126;52.738;8.316;2023-05-27T20:21:50;16.00;74.80
6186;DHT22;3126;52.738;8.316;2023-05-27T20:26:51;15.50;74.70
6186;DHT22;3126;52.738;8.316;2023-05-27T20:31:52;15.30;76.10
6186;DHT22;3126;52.738;8.316;2023-05-27T20:36:53;15.20;76.80
6186;DHT22;3126;52.738;8.316;2023-05-27T20:41:53;15.10;78.00
6186;DHT22;3126;52.738;8.316;2023-05-27T20:46:54;15.20;80.10
6186;DHT22;3126;52.738;8.316;2023-05-27T20:51:55;14.80;80.90
6186;DHT22;3126;52.738;8.316;2023-05-27T20:56:56;14.60;82.50
6186;DHT22;3126;52.738;8.316;2023-05-27T21:02:06;14.40;84.40
6186;DHT22;3126;52.738;8.316;2023-05-27T21:07:08;14.30;85.50
6186;DHT22;3126;52.738;8.316;2023-05-27T21:12:10;14.20;86.50
6186;DHT22;3126;52.738;8.316;2023-05-27T21:17:10;14.10;87.40
6186;DHT22;3126;52.738;8.316;2023-05-27T21:27:12;14.00;88.70
6186;DHT22;3126;52.738;8.316;2023-05-27T21:32:13;13.70;90.50
6186;DHT22;3126;52.738;8.316;2023-05-27T21:37:14;13.60;91.40
6186;DHT22;3126;52.738;8.316;2023-05-27T21:47:18;13.50;91.80
6186;DHT22;3126;52.738;8.316;2023-05-27T21:52:20;13.30;93.00
6186;DHT22;3126;52.738;8.316;2023-05-27T21:57:24;13.10;93.90
6186;DHT22;3126;52.738;8.316;2023-05-27T22:07:26;13.00;94.30
6186;DHT22;3126;52.738;8.316;2023-05-27T22:12:26;12.80;95.40
6186;DHT22;3126;52.738;8.316;2023-05-27T22:27:29;12.70;96.00
6186;DHT22;3126;52.738;8.316;2023-05-27T22:32:29;12.50;96.90
6186;DHT22;3126;52.738;8.316;2023-05-27T22:37:30;12.40;97.50
6186;DHT22;3126;52.738;8.316;2023-05-27T22:42:30;12.30;98.00
6186;DHT22;3126;52.738;8.316;2023-05-27T22:47:31;12.20;98.80
6186;DHT22;3126;52.738;8.316;2023-05-27T22:52:32;12.20;99.10
6186;DHT22;3126;52.738;8.316;2023-05-27T23:12:36;12.10;99.40
6186;DHT22;3126;52.738;8.316;2023-05-27T23:17:36;11.80;99.90
6186;DHT22;3126;52.738;8.316;2023-05-27T23:22:37;11.80;99.90
6186;DHT22;3126;52.738;8.316;2023-05-27T23:32:40;11.70;99.90
6186;DHT22;3126;52.738;8.316;2023-05-27T23:37:41;11.50;99.90
6186;DHT22;3126;52.738;8.316;2023-05-27T23:42:42;11.40;99.90
6186;DHT22;3126;52.738;8.316;2023-05-27T23:47:43;11.40;99.90
6186;DHT22;3126;52.738;8.316;2023-05-27T23:52:44;11.30;99.90
6186;DHT22;3126;52.738;8.316;2023-05-27T23:57:44;11.30;99.90
